Canefield Airport

Cloudy with adjacent showers and slight haze
27oC (81oF)

Cloudy with adjacent showers and slight haze


Winds: North westerly @ 03kts / 06km/h

Humidity: 83%

Barometric Pressure: 1015 mb

Accumulated Rainfall for June: 45.7 mm

Updated: 9:00 local time (13:00 UTC)

Douglas-Charles Airport

Cloudy with vicinity showers
29oC (84oF)

Cloudy with vicinity showers


Winds: East south easterly @ 08kts / 15km/h

Humidity: 78%

Barometric Pressure: 1017 mb

Accumulated Rainfall for June: 101.4 mm

Updated: 9:00 local time (13:00 UTC)

Satellite Imagery

Satellite Imagery
Click image for larger view. (Source: National Hurricane Center).

Aviation Routine Report (METAR)

Douglas-Charles: METAR TDPD 161300Z 12008KT 9999 VCSH FEW015TCU SCT016 29/25 Q1017=
Canefield: METAR TDCF 161300Z 32003KT 9999 BKN016 27/24 Q1015=